Time;durP1;ratioP1;P1;durP2;ratioP2;P2;SDS_P1;SDS_P2;PMS_P1;PMS_P2;Temp;Humidity;BMP_temperature;BMP_pressure;BME280_temperature;BME280_humidity;BME280_pressure;Samples;Min_cycle;Max_cycle;Signal;HPM_P1;HPM_P2
2022/03/11 00:01:36;;;;;;;11.77;4.97;;;14.30;49.80;;;;;;6254831;28;20032;-68
2022/03/11 00:04:38;;;;;;;10.85;5.20;;;14.30;49.90;;;;;;6273205;28;20029;-69
2022/03/11 00:07:38;;;;;;;12.18;4.85;;;14.30;50.00;;;;;;6272527;28;20033;-69
2022/03/11 00:10:39;;;;;;;13.52;5.05;;;14.30;50.10;;;;;;6268443;28;20055;-69
2022/03/11 00:13:40;;;;;;;11.98;5.88;;;14.30;50.20;;;;;;6258499;28;20160;-68
2022/03/11 00:16:41;;;;;;;17.92;5.75;;;14.30;50.30;;;;;;6254698;28;20037;-69
2022/03/11 00:19:42;;;;;;;13.05;6.00;;;14.30;50.40;;;;;;6271310;28;20097;-69
2022/03/11 00:22:43;;;;;;;15.48;5.32;;;14.30;50.50;;;;;;6254181;28;20047;-69
2022/03/11 00:25:44;;;;;;;15.55;5.63;;;14.30;50.50;;;;;;6272294;28;20090;-69
2022/03/11 00:28:45;;;;;;;13.52;5.50;;;14.30;50.70;;;;;;6270853;28;20458;-69
2022/03/11 00:31:46;;;;;;;21.35;5.93;;;14.30;50.80;;;;;;6272913;28;20420;-69
2022/03/11 00:34:46;;;;;;;12.25;5.47;;;14.20;50.90;;;;;;6254638;28;20045;-69
2022/03/11 00:37:47;;;;;;;19.23;6.80;;;14.20;50.90;;;;;;6272148;28;20116;-69
2022/03/11 00:40:48;;;;;;;12.93;6.45;;;14.20;51.30;;;;;;6271317;28;20044;-68
2022/03/11 00:43:49;;;;;;;13.60;6.68;;;14.20;50.50;;;;;;6256619;28;20087;-68
2022/03/11 00:46:50;;;;;;;15.50;6.20;;;14.20;50.40;;;;;;6249534;28;20063;-69
2022/03/11 00:49:51;;;;;;;18.20;6.22;;;14.20;50.30;;;;;;6252231;28;20130;-69
2022/03/11 00:52:53;;;;;;;14.43;6.65;;;14.20;50.40;;;;;;6251098;28;20473;-69
2022/03/11 00:55:55;;;;;;;20.95;6.82;;;14.20;50.40;;;;;;6251017;28;20462;-69
2022/03/11 00:58:56;;;;;;;13.93;6.78;;;14.20;50.40;;;;;;6251861;28;20037;-69
2022/03/11 01:01:57;;;;;;;18.45;6.88;;;14.20;50.40;;;;;;6253852;28;20037;-69
2022/03/11 01:04:58;;;;;;;14.25;6.63;;;14.20;50.40;;;;;;6275252;28;20037;-69
2022/03/11 01:07:58;;;;;;;13.20;6.35;;;14.20;50.40;;;;;;6275478;28;20171;-68
2022/03/11 01:11:00;;;;;;;15.20;6.63;;;14.20;50.40;;;;;;6275167;28;20454;-69
2022/03/11 01:14:01;;;;;;;14.23;6.72;;;14.10;50.40;;;;;;6261223;28;20030;-69
2022/03/11 01:17:02;;;;;;;20.35;7.28;;;14.10;50.50;;;;;;6251454;28;20033;-69
2022/03/11 01:20:05;;;;;;;19.30;6.88;;;14.10;50.60;;;;;;6251416;28;20052;-68
2022/03/11 01:23:06;;;;;;;14.98;6.90;;;14.00;50.70;;;;;;6251549;28;20041;-69
2022/03/11 01:26:07;;;;;;;13.52;6.93;;;14.00;50.80;;;;;;6248894;28;20328;-69
2022/03/11 01:29:08;;;;;;;16.23;6.72;;;14.00;50.90;;;;;;6250238;28;20053;-69
2022/03/11 01:32:11;;;;;;;10.85;5.72;;;13.90;50.90;;;;;;6231775;28;20092;-68
2022/03/11 01:35:12;;;;;;;21.00;7.70;;;13.90;51.00;;;;;;6251217;28;20037;-69
2022/03/11 01:38:15;;;;;;;10.38;5.80;;;14.00;51.00;;;;;;6239166;28;20045;-69
2022/03/11 01:41:16;;;;;;;12.80;6.55;;;13.90;51.10;;;;;;6274045;28;20501;-69
2022/03/11 01:44:17;;;;;;;11.52;5.85;;;13.90;51.10;;;;;;6274656;28;20037;-68
2022/03/11 01:47:18;;;;;;;13.80;6.47;;;13.90;51.10;;;;;;6249862;28;20048;-68
2022/03/11 01:50:18;;;;;;;13.70;6.60;;;13.90;51.10;;;;;;6266609;28;20102;-68
2022/03/11 01:53:20;;;;;;;17.48;6.82;;;13.90;51.20;;;;;;6275293;28;20128;-68
2022/03/11 01:56:24;;;;;;;12.50;6.35;;;13.90;51.20;;;;;;6274350;28;20358;-68
2022/03/11 01:59:24;;;;;;;11.68;6.07;;;13.90;51.30;;;;;;6276488;28;20029;-68
2022/03/11 02:02:25;;;;;;;13.93;6.20;;;13.80;51.10;;;;;;6277451;28;20121;-68
2022/03/11 02:05:28;;;;;;;14.80;7.18;;;13.80;51.00;;;;;;6274850;28;20060;-68
2022/03/11 02:08:30;;;;;;;14.43;7.75;;;13.80;51.00;;;;;;6250133;28;20056;-68
2022/03/11 02:11:31;;;;;;;21.13;8.15;;;13.80;51.10;;;;;;6256536;28;20044;-68
2022/03/11 02:14:33;;;;;;;15.52;8.18;;;13.70;51.20;;;;;;6275234;28;20311;-68
2022/03/11 02:17:34;;;;;;;16.60;7.53;;;13.70;51.20;;;;;;6275770;28;20128;-68
2022/03/11 02:20:35;;;;;;;20.10;7.50;;;13.60;51.20;;;;;;6267688;28;20049;-68
2022/03/11 02:23:45;;;;;;;14.07;7.25;;;13.60;51.20;;;;;;6271402;28;20127;-68
2022/03/11 02:26:47;;;;;;;18.75;7.80;;;13.60;51.20;;;;;;6274586;28;20041;-69
2022/03/11 02:29:48;;;;;;;16.08;7.07;;;13.60;51.30;;;;;;6249507;28;20111;-68
2022/03/11 02:32:49;;;;;;;19.65;7.43;;;13.60;51.40;;;;;;6250498;28;20455;-70
2022/03/11 02:35:50;;;;;;;16.05;7.93;;;13.60;51.50;;;;;;6249848;28;20428;-70
2022/03/11 02:38:51;;;;;;;15.65;7.45;;;13.60;51.40;;;;;;6265232;28;20033;-68
2022/03/11 02:41:52;;;;;;;17.08;7.60;;;13.70;51.40;;;;;;6272982;28;20067;-68
2022/03/11 02:44:53;;;;;;;17.85;8.18;;;13.70;51.40;;;;;;6273644;28;20041;-68
2022/03/11 02:47:54;;;;;;;14.63;7.78;;;13.70;51.40;;;;;;6272903;28;20044;-69
2022/03/11 02:50:55;;;;;;;20.00;7.75;;;13.70;51.30;;;;;;6248232;28;20033;-68
2022/03/11 02:53:56;;;;;;;18.67;9.18;;;13.70;51.20;;;;;;6231909;28;20033;-68
2022/03/11 02:56:57;;;;;;;28.27;9.18;;;13.60;50.90;;;;;;6256069;28;20037;-68
2022/03/11 02:59:58;;;;;;;19.73;8.43;;;13.60;50.90;;;;;;6273686;28;20033;-68
2022/03/11 03:02:59;;;;;;;22.30;8.45;;;13.50;50.90;;;;;;6274866;28;20040;-68
2022/03/11 03:06:00;;;;;;;18.77;8.57;;;13.50;51.00;;;;;;6272665;28;20041;-68
2022/03/11 03:09:01;;;;;;;17.88;8.63;;;13.50;50.80;;;;;;6271308;28;20056;-68
2022/03/11 03:12:02;;;;;;;19.67;9.15;;;13.40;50.80;;;;;;6272782;28;20037;-68
2022/03/11 03:15:04;;;;;;;20.90;8.95;;;13.40;50.80;;;;;;6271285;28;20028;-68
2022/03/11 03:18:05;;;;;;;19.38;9.38;;;13.30;50.80;;;;;;6272107;28;20052;-68
2022/03/11 03:21:06;;;;;;;17.38;8.52;;;13.30;50.80;;;;;;6247693;28;20041;-68
2022/03/11 03:24:07;;;;;;;19.27;9.13;;;13.30;50.80;;;;;;6264015;28;20043;-68
2022/03/11 03:27:08;;;;;;;20.15;9.30;;;13.30;50.60;;;;;;6273658;28;20087;-68
2022/03/11 03:30:10;;;;;;;22.67;8.52;;;13.30;50.60;;;;;;6271698;28;20132;-68
2022/03/11 03:33:11;;;;;;;22.38;9.07;;;13.20;50.30;;;;;;6272838;28;20047;-68
2022/03/11 03:36:12;;;;;;;23.85;10.18;;;13.20;50.30;;;;;;6247277;28;20037;-68
2022/03/11 03:39:12;;;;;;;20.80;9.15;;;13.20;50.30;;;;;;6272106;28;20044;-68
2022/03/11 03:42:13;;;;;;;22.65;8.77;;;13.20;50.20;;;;;;6271897;28;20037;-68
2022/03/11 03:45:15;;;;;;;21.67;8.75;;;13.10;50.20;;;;;;6271215;28;20339;-68
2022/03/11 03:48:15;;;;;;;22.58;9.25;;;13.10;50.20;;;;;;6271535;28;20087;-68
2022/03/11 03:51:16;;;;;;;24.50;9.43;;;12.90;50.30;;;;;;6270064;28;20040;-68
2022/03/11 03:54:18;;;;;;;17.25;8.88;;;13.00;50.40;;;;;;6272127;28;20090;-67
2022/03/11 03:57:21;;;;;;;24.02;8.82;;;13.00;50.50;;;;;;6271645;28;20041;-67
2022/03/11 04:00:22;;;;;;;22.83;9.07;;;13.00;50.60;;;;;;6247891;28;20143;-67
2022/03/11 04:03:23;;;;;;;27.02;10.65;;;12.90;50.90;;;;;;6264225;28;20071;-68
2022/03/11 04:06:26;;;;;;;20.25;9.48;;;12.80;51.00;;;;;;6272085;28;20069;-68
2022/03/11 04:09:27;;;;;;;22.35;9.93;;;12.80;51.10;;;;;;6269435;28;20059;-68
2022/03/11 04:12:28;;;;;;;21.05;8.52;;;12.80;51.20;;;;;;6250927;28;20036;-67
2022/03/11 04:15:29;;;;;;;18.50;8.57;;;12.70;51.30;;;;;;6271138;28;20029;-67
2022/03/11 04:18:30;;;;;;;25.27;9.13;;;12.70;51.50;;;;;;6270449;28;20045;-69
2022/03/11 04:21:31;;;;;;;26.75;9.45;;;12.70;51.60;;;;;;6276448;28;20094;-68
2022/03/11 04:24:32;;;;;;;23.13;9.25;;;12.70;51.40;;;;;;6279476;28;20036;-68
2022/03/11 04:27:32;;;;;;;22.33;9.55;;;12.70;51.30;;;;;;6279292;28;20072;-68
2022/03/11 04:30:33;;;;;;;20.50;8.43;;;12.80;51.30;;;;;;6280550;28;20041;-68
2022/03/11 04:33:36;;;;;;;24.70;9.60;;;12.70;51.30;;;;;;6279808;28;20070;-67
2022/03/11 04:36:38;;;;;;;16.38;8.10;;;12.70;51.20;;;;;;6279645;28;20044;-68
2022/03/11 04:39:39;;;;;;;27.40;9.20;;;12.70;51.30;;;;;;6274006;28;20052;-67
2022/03/11 04:42:41;;;;;;;19.00;9.27;;;12.70;51.50;;;;;;6280480;28;20043;-67
2022/03/11 04:45:42;;;;;;;19.30;7.88;;;12.60;51.50;;;;;;6278760;28;20029;-68
2022/03/11 04:48:46;;;;;;;16.38;8.25;;;12.60;51.50;;;;;;6280569;28;20469;-68
2022/03/11 04:51:47;;;;;;;19.42;9.38;;;12.50;51.60;;;;;;6279632;28;20112;-69
2022/03/11 04:54:48;;;;;;;24.67;8.55;;;12.50;51.80;;;;;;6279194;28;20029;-68
2022/03/11 04:57:49;;;;;;;23.15;8.05;;;12.40;51.90;;;;;;6254313;28;20419;-68
2022/03/11 05:00:50;;;;;;;20.40;8.20;;;12.30;52.00;;;;;;6279278;28;20047;-68
2022/03/11 05:03:52;;;;;;;19.00;9.02;;;12.40;52.10;;;;;;6254221;28;20116;-67
2022/03/11 05:06:53;;;;;;;20.48;8.23;;;12.40;52.20;;;;;;6277782;28;20362;-68
2022/03/11 05:09:53;;;;;;;18.65;8.40;;;12.30;52.10;;;;;;6261315;28;20040;-67
2022/03/11 05:12:54;;;;;;;25.17;8.70;;;12.30;52.10;;;;;;6277656;28;20040;-68
2022/03/11 05:15:56;;;;;;;21.33;7.65;;;12.40;52.00;;;;;;6253159;28;20037;-68
2022/03/11 05:18:57;;;;;;;21.95;8.93;;;12.40;52.00;;;;;;6236307;28;20033;-67
2022/03/11 05:21:57;;;;;;;19.25;8.18;;;12.40;52.00;;;;;;6271626;28;20072;-67
2022/03/11 05:24:59;;;;;;;16.00;7.22;;;12.30;51.90;;;;;;6278004;28;20045;-68
2022/03/11 05:28:00;;;;;;;21.05;8.00;;;12.30;51.80;;;;;;6277537;28;20033;-70
2022/03/11 05:31:01;;;;;;;19.15;9.02;;;12.30;51.60;;;;;;6278655;28;20025;-68
2022/03/11 05:34:02;;;;;;;22.58;8.85;;;12.30;51.60;;;;;;6273319;28;20028;-69
2022/03/11 05:37:03;;;;;;;17.42;8.45;;;12.30;51.40;;;;;;6274584;28;20036;-69
2022/03/11 05:40:04;;;;;;;17.08;7.13;;;12.30;51.50;;;;;;6273827;28;20037;-69
2022/03/11 05:43:05;;;;;;;14.32;6.55;;;12.30;51.50;;;;;;6249684;28;20469;-68
2022/03/11 05:46:06;;;;;;;19.95;7.50;;;12.30;51.50;;;;;;6269532;28;20052;-68
2022/03/11 05:49:07;;;;;;;17.13;8.07;;;12.30;51.30;;;;;;6274845;28;20037;-68
2022/03/11 05:52:08;;;;;;;15.85;7.00;;;12.20;51.00;;;;;;6274693;28;20047;-68
2022/03/11 05:55:09;;;;;;;20.58;8.20;;;12.20;51.10;;;;;;6273173;28;20148;-67
2022/03/11 05:58:10;;;;;;;25.33;8.20;;;12.10;51.10;;;;;;6272852;28;20041;-68
2022/03/11 06:01:11;;;;;;;18.20;7.97;;;12.10;51.20;;;;;;6248471;28;20041;-68
2022/03/11 06:04:12;;;;;;;19.40;7.82;;;12.10;51.30;;;;;;6274707;28;20037;-69
2022/03/11 06:07:13;;;;;;;21.30;7.70;;;12.10;51.30;;;;;;6249314;28;20037;-69
2022/03/11 06:10:14;;;;;;;17.33;6.40;;;12.10;51.30;;;;;;6273003;28;20471;-69
2022/03/11 06:13:15;;;;;;;19.15;9.13;;;12.10;51.40;;;;;;6272622;28;20370;-68
2022/03/11 06:16:16;;;;;;;22.75;8.38;;;12.10;51.50;;;;;;6273326;28;20411;-67
2022/03/11 06:19:17;;;;;;;19.55;7.90;;;12.10;51.60;;;;;;6271429;28;20053;-68
2022/03/11 06:22:18;;;;;;;20.15;7.15;;;12.10;51.60;;;;;;6262947;28;20527;-68
2022/03/11 06:25:20;;;;;;;14.80;7.32;;;12.10;51.50;;;;;;6224345;28;20447;-68
2022/03/11 06:28:20;;;;;;;13.30;5.75;;;12.10;51.50;;;;;;6243717;28;20100;-68
2022/03/11 06:31:21;;;;;;;12.45;6.10;;;12.10;51.50;;;;;;6248561;28;20041;-68
2022/03/11 06:34:22;;;;;;;19.45;7.05;;;12.00;51.50;;;;;;6270391;28;20045;-70
2022/03/11 06:37:31;;;;;;;19.02;7.63;;;12.00;51.60;;;;;;6272427;28;20047;-69
2022/03/11 06:40:32;;;;;;;15.25;7.20;;;12.00;51.70;;;;;;6272183;28;20033;-69
2022/03/11 06:43:33;;;;;;;15.20;7.47;;;12.00;51.60;;;;;;6271793;28;20025;-68
2022/03/11 06:46:34;;;;;;;14.82;6.82;;;12.00;51.60;;;;;;6271368;28;20051;-69
2022/03/11 06:49:35;;;;;;;17.67;7.03;;;12.10;51.60;;;;;;6271731;28;20418;-69
2022/03/11 06:52:36;;;;;;;17.58;7.93;;;12.00;51.80;;;;;;6272608;28;20067;-68
2022/03/11 06:55:37;;;;;;;19.15;7.95;;;12.00;51.80;;;;;;6272362;28;20060;-67
2022/03/11 06:58:38;;;;;;;23.60;8.13;;;12.10;51.90;;;;;;6270833;28;20052;-69
2022/03/11 07:01:39;;;;;;;18.90;8.10;;;12.10;51.80;;;;;;6246577;28;20034;-68
2022/03/11 07:04:40;;;;;;;17.15;7.55;;;12.10;51.60;;;;;;6267351;28;20029;-69
2022/03/11 07:07:41;;;;;;;19.92;7.88;;;12.10;51.40;;;;;;6271563;28;20378;-69
2022/03/11 07:10:42;;;;;;;14.38;6.90;;;12.20;51.70;;;;;;6271301;28;20040;-69
2022/03/11 07:13:45;;;;;;;20.30;8.05;;;12.20;51.40;;;;;;6272461;28;20063;-69
2022/03/11 07:16:52;;;;;;;13.68;7.50;;;12.20;51.40;;;;;;6273224;28;20047;-70
2022/03/11 07:19:53;;;;;;;21.42;7.57;;;12.30;51.30;;;;;;6272651;28;20033;-69
2022/03/11 07:22:54;;;;;;;17.77;7.53;;;12.40;51.40;;;;;;6272919;28;20044;-68
2022/03/11 07:25:56;;;;;;;17.30;8.10;;;12.50;51.80;;;;;;6271887;28;20033;-68
2022/03/11 07:28:56;;;;;;;22.25;9.52;;;12.60;51.00;;;;;;6253434;28;20044;-69
2022/03/11 07:31:57;;;;;;;16.10;7.20;;;12.70;50.80;;;;;;6272893;28;20040;-68
2022/03/11 07:34:58;;;;;;;18.27;7.72;;;12.80;50.50;;;;;;6272428;28;20489;-69
2022/03/11 07:37:59;;;;;;;22.95;7.80;;;12.90;50.30;;;;;;6272370;28;20041;-69
2022/03/11 07:41:00;;;;;;;13.68;6.50;;;12.90;50.10;;;;;;6271742;28;20466;-69
2022/03/11 07:44:02;;;;;;;19.40;7.70;;;13.00;50.00;;;;;;6271937;28;20083;-68
2022/03/11 07:47:03;;;;;;;14.02;7.47;;;13.00;49.80;;;;;;6271197;28;20033;-69
2022/03/11 07:50:05;;;;;;;19.80;8.23;;;13.00;49.60;;;;;;6246486;28;20033;-68
2022/03/11 07:53:06;;;;;;;19.48;7.78;;;13.10;49.60;;;;;;6272633;28;20033;-67
2022/03/11 07:56:10;;;;;;;16.52;7.38;;;13.20;49.40;;;;;;6270911;28;20099;-68
2022/03/11 07:59:11;;;;;;;15.90;8.18;;;13.30;49.30;;;;;;6271278;28;20029;-68
2022/03/11 08:02:12;;;;;;;19.17;7.05;;;13.40;49.10;;;;;;6271881;28;20048;-69
2022/03/11 08:05:15;;;;;;;14.07;7.82;;;13.50;49.00;;;;;;6270778;28;20037;-68
2022/03/11 08:08:17;;;;;;;21.00;7.85;;;13.70;48.90;;;;;;6270998;28;20037;-69
2022/03/11 08:11:18;;;;;;;20.85;8.13;;;13.80;48.60;;;;;;6270243;28;20047;-69
2022/03/11 08:14:19;;;;;;;18.17;7.63;;;13.90;48.20;;;;;;6271025;28;20068;-68
2022/03/11 08:17:23;;;;;;;20.15;8.13;;;14.00;47.80;;;;;;6247434;28;20045;-68
2022/03/11 08:20:26;;;;;;;17.42;7.35;;;14.00;47.60;;;;;;6245590;28;20033;-69
2022/03/11 08:23:27;;;;;;;15.85;7.40;;;14.10;47.40;;;;;;6247251;28;20037;-69
2022/03/11 08:26:28;;;;;;;21.20;7.53;;;14.10;47.20;;;;;;6243061;28;20045;-69
2022/03/11 08:29:33;;;;;;;15.27;7.28;;;14.20;47.20;;;;;;6263796;28;20099;-70
2022/03/11 08:32:34;;;;;;;19.30;8.52;;;14.30;47.10;;;;;;6255167;28;20092;-69
2022/03/11 08:35:35;;;;;;;17.27;7.57;;;14.30;46.80;;;;;;6271019;28;20033;-68
2022/03/11 08:38:37;;;;;;;17.52;7.22;;;14.50;46.80;;;;;;6271011;28;20045;-69
2022/03/11 08:41:38;;;;;;;14.60;7.38;;;14.60;46.80;;;;;;6269592;28;20101;-69
2022/03/11 08:44:39;;;;;;;19.40;7.80;;;14.60;46.70;;;;;;6269311;28;20048;-69
2022/03/11 08:47:41;;;;;;;24.48;9.07;;;14.70;46.50;;;;;;6271109;28;20033;-69
2022/03/11 08:50:42;;;;;;;18.77;7.57;;;14.90;46.40;;;;;;6273242;28;20040;-68
2022/03/11 08:53:42;;;;;;;16.35;6.95;;;14.90;46.10;;;;;;6250631;28;20037;-69
2022/03/11 08:56:43;;;;;;;16.45;7.88;;;15.00;45.90;;;;;;6271892;28;20040;-68
2022/03/11 08:59:45;;;;;;;24.45;8.50;;;15.10;45.80;;;;;;6246286;28;20037;-70
2022/03/11 09:02:47;;;;;;;15.63;7.55;;;15.10;45.70;;;;;;6239492;28;20037;-69
2022/03/11 09:05:48;;;;;;;24.10;9.82;;;15.30;45.70;;;;;;6237076;28;20168;-69
2022/03/11 09:08:48;;;;;;;17.67;8.05;;;15.30;45.40;;;;;;6242509;28;20038;-69
2022/03/11 09:11:50;;;;;;;18.48;7.85;;;15.40;45.40;;;;;;6251055;28;20390;-69
2022/03/11 09:14:51;;;;;;;20.58;8.90;;;15.50;45.30;;;;;;6249028;28;20045;-68
2022/03/11 09:17:52;;;;;;;23.38;8.18;;;15.60;45.30;;;;;;6233325;28;20045;-69
2022/03/11 09:20:55;;;;;;;15.43;8.35;;;15.70;45.10;;;;;;6266609;28;20335;-69
2022/03/11 09:23:55;;;;;;;19.75;8.10;;;15.80;44.80;;;;;;6226964;28;20088;-68
2022/03/11 09:26:58;;;;;;;21.52;8.60;;;15.90;44.60;;;;;;6242567;28;20033;-68
2022/03/11 09:29:59;;;;;;;29.25;8.15;;;16.00;44.40;;;;;;6251207;28;20033;-69
2022/03/11 09:33:01;;;;;;;16.50;8.18;;;16.20;44.20;;;;;;6237758;28;20044;-68
2022/03/11 09:36:03;;;;;;;17.35;8.05;;;16.30;44.00;;;;;;6266175;28;20358;-69
2022/03/11 09:39:04;;;;;;;17.35;8.02;;;16.40;43.80;;;;;;6275563;28;20539;-68
2022/03/11 09:42:06;;;;;;;17.10;8.50;;;16.40;43.70;;;;;;6254112;28;20043;-69
2022/03/11 09:45:07;;;;;;;19.63;8.38;;;16.60;43.70;;;;;;6273966;28;20086;-68
2022/03/11 09:48:11;;;;;;;17.13;8.68;;;16.70;43.70;;;;;;6233033;28;20112;-70
2022/03/11 09:51:12;;;;;;;16.15;7.15;;;16.80;44.10;;;;;;6225494;28;20125;-69
2022/03/11 09:54:14;;;;;;;14.63;7.05;;;16.80;44.40;;;;;;6204707;28;20112;-69
2022/03/11 09:57:22;;;;;;;12.75;6.82;;;16.90;44.60;;;;;;6249647;28;20052;-68
2022/03/11 10:00:23;;;;;;;;;;;17.00;44.70;;;;;;6266222;28;20044;-68
2022/03/11 10:03:24;;;;;;;9.48;5.53;;;17.10;44.80;;;;;;6274259;28;19917;-68
2022/03/11 10:06:44;;;;;;;22.02;6.55;;;17.20;44.70;;;;;;6274672;28;20490;-69
2022/03/11 10:09:47;;;;;;;9.80;5.40;;;17.30;44.60;;;;;;6267880;28;20058;-70
2022/03/11 10:12:49;;;;;;;14.00;6.68;;;17.50;44.20;;;;;;6256481;28;20045;-69
2022/03/11 10:15:50;;;;;;;11.05;6.10;;;17.60;43.90;;;;;;6271964;28;20025;-69
2022/03/11 10:18:55;;;;;;;14.95;6.75;;;17.70;43.50;;;;;;6272414;28;20029;-69
2022/03/11 10:22:00;;;;;;;15.63;7.53;;;17.90;43.30;;;;;;6256316;28;20110;-70
2022/03/11 10:25:05;;;;;;;20.50;6.97;;;18.00;42.70;;;;;;6273138;28;20362;-69
2022/03/11 10:28:12;;;;;;;18.88;6.80;;;18.10;42.50;;;;;;6272080;28;20446;-68
2022/03/11 10:31:13;;;;;;;14.95;6.28;;;18.20;42.20;;;;;;6249282;28;20029;-69
2022/03/11 10:34:24;;;;;;;12.50;6.28;;;18.30;41.90;;;;;;6270023;28;20075;-69
2022/03/11 10:37:25;;;;;;;14.95;6.68;;;18.50;41.80;;;;;;6271405;28;20106;-69
2022/03/11 10:40:28;;;;;;;12.05;5.63;;;18.60;41.70;;;;;;6254886;28;20064;-70
2022/03/11 10:43:31;;;;;;;14.82;5.70;;;18.70;41.50;;;;;;6272004;28;20133;-68
2022/03/11 10:46:32;;;;;;;12.88;5.57;;;18.70;41.30;;;;;;6269117;28;20060;-69
2022/03/11 10:49:35;;;;;;;11.73;5.72;;;18.80;41.30;;;;;;6272901;28;20048;-69
2022/03/11 10:52:47;;;;;;;11.65;6.25;;;18.90;41.00;;;;;;6247600;28;20061;-70
2022/03/11 10:55:48;;;;;;;12.90;5.70;;;19.00;40.70;;;;;;6271942;28;20037;-71
2022/03/11 10:58:49;;;;;;;17.50;6.72;;;19.10;40.40;;;;;;6271470;28;20086;-69
2022/03/11 11:01:53;;;;;;;12.05;6.05;;;19.10;40.30;;;;;;6246980;28;20053;-69
2022/03/11 11:04:55;;;;;;;15.10;6.03;;;19.20;40.30;;;;;;6218909;28;20344;-69
2022/03/11 11:07:58;;;;;;;18.83;7.03;;;19.30;40.20;;;;;;6229534;28;20036;-69
2022/03/11 11:11:01;;;;;;;13.55;5.97;;;19.30;39.70;;;;;;6246987;28;20359;-70
2022/03/11 11:14:05;;;;;;;17.98;6.53;;;19.40;39.60;;;;;;6253267;28;20044;-68
2022/03/11 11:17:07;;;;;;;19.67;6.15;;;19.30;39.60;;;;;;6271509;28;20056;-69
2022/03/11 11:20:16;;;;;;;13.20;5.45;;;19.20;39.60;;;;;;6269929;28;20094;-69
2022/03/11 11:23:17;;;;;;;12.23;6.30;;;19.00;39.50;;;;;;6270753;28;20033;-70
2022/03/11 11:26:18;;;;;;;13.32;6.80;;;19.00;39.60;;;;;;6253326;28;20037;-70
2022/03/11 11:29:29;;;;;;;12.82;6.10;;;19.00;39.70;;;;;;6252221;28;20367;-69
2022/03/11 11:32:30;;;;;;;11.38;6.40;;;19.00;39.50;;;;;;6270350;28;20037;-69
2022/03/11 11:35:32;;;;;;;12.95;7.07;;;18.90;39.40;;;;;;6270581;28;20040;-70
2022/03/11 11:38:36;;;;;;;9.48;5.45;;;18.90;39.50;;;;;;6275976;28;20032;-71
2022/03/11 11:41:37;;;;;;;21.45;6.53;;;18.90;39.50;;;;;;6268715;28;20044;-69
2022/03/11 11:44:42;;;;;;;22.85;6.30;;;19.00;39.30;;;;;;6269098;28;20128;-70
2022/03/11 11:47:42;;;;;;;13.95;6.22;;;19.20;38.90;;;;;;6269451;28;20056;-70
2022/03/11 11:50:44;;;;;;;12.73;6.20;;;19.40;38.20;;;;;;6270236;28;20473;-71
2022/03/11 11:53:56;;;;;;;15.55;6.25;;;19.60;37.50;;;;;;6269728;28;20428;-69
2022/03/11 11:57:00;;;;;;;9.93;5.70;;;19.70;37.00;;;;;;6252929;28;20202;-69
2022/03/11 12:00:05;;;;;;;12.20;4.68;;;19.90;36.20;;;;;;6246355;28;20041;-70
2022/03/11 12:03:16;;;;;;;7.10;3.65;;;20.00;35.10;;;;;;6271207;28;20472;-69
2022/03/11 12:06:57;;;;;;;8.05;3.58;;;20.30;33.40;;;;;;6227392;28;20065;-70
2022/03/11 12:10:00;;;;;;;7.53;3.40;;;20.70;31.90;;;;;;6241968;28;20033;-71
2022/03/11 12:13:04;;;;;;;6.70;3.65;;;21.20;30.00;;;;;;6220362;28;20447;-70
2022/03/11 12:16:20;;;;;;;13.15;4.13;;;21.80;28.30;;;;;;6237523;28;20061;-70
2022/03/11 12:19:41;;;;;;;8.05;4.13;;;22.50;27.00;;;;;;6241900;28;20467;-70
2022/03/11 12:23:00;;;;;;;8.05;3.72;;;23.40;24.90;;;;;;6243192;28;20447;-69
2022/03/11 12:26:08;;;;;;;10.00;3.83;;;24.00;24.20;;;;;;6242654;28;20045;-70
2022/03/11 12:29:35;;;;;;;5.63;3.40;;;24.60;23.40;;;;;;6247206;28;20335;-70
2022/03/11 12:32:38;;;;;;;6.70;3.55;;;25.10;22.10;;;;;;6243729;28;20466;-70
2022/03/11 12:35:40;;;;;;;7.40;3.83;;;25.40;21.20;;;;;;6242045;28;20470;-70
2022/03/11 12:38:42;;;;;;;8.63;3.20;;;25.80;20.70;;;;;;6244310;28;20489;-70
2022/03/11 12:41:43;;;;;;;11.38;3.50;;;26.20;20.40;;;;;;6243182;28;20041;-69
2022/03/11 12:44:47;;;;;;;7.75;3.30;;;26.70;19.50;;;;;;6261545;28;20051;-70
2022/03/11 12:47:49;;;;;;;13.75;3.33;;;26.90;18.90;;;;;;6272424;28;20033;-70
2022/03/11 12:50:51;;;;;;;9.27;3.47;;;27.30;18.90;;;;;;6271364;28;20044;-71
2022/03/11 12:53:53;;;;;;;10.55;3.72;;;27.70;18.20;;;;;;6270179;28;20033;-70
2022/03/11 12:56:57;;;;;;;6.20;3.60;;;27.90;17.90;;;;;;6270420;28;20036;-70
2022/03/11 12:59:58;;;;;;;5.13;2.58;;;28.10;17.30;;;;;;6272094;28;20067;-70
2022/03/11 13:02:59;;;;;;;5.47;3.00;;;28.00;17.00;;;;;;6257494;28;20029;-69
2022/03/11 13:06:03;;;;;;;8.60;2.58;;;27.80;17.20;;;;;;6273960;28;20095;-70
2022/03/11 13:09:04;;;;;;;5.75;3.20;;;27.90;17.40;;;;;;6274955;28;20087;-69
2022/03/11 13:12:24;;;;;;;5.97;2.97;;;28.10;17.20;;;;;;6232102;28;20030;-69
2022/03/11 13:15:32;;;;;;;7.22;2.92;;;27.60;17.10;;;;;;6268964;28;20039;-69
2022/03/11 13:18:37;;;;;;;7.88;2.50;;;26.90;17.30;;;;;;6274163;28;20912;-70
2022/03/11 13:21:41;;;;;;;5.63;2.88;;;26.40;17.50;;;;;;6274290;28;20059;-69
2022/03/11 13:24:42;;;;;;;3.92;2.45;;;25.90;17.80;;;;;;6272261;28;20029;-70
2022/03/11 13:27:43;;;;;;;7.93;2.50;;;25.50;18.20;;;;;;6272927;28;20401;-70
2022/03/11 13:30:44;;;;;;;7.00;2.50;;;25.20;18.50;;;;;;6274035;28;20041;-69
2022/03/11 13:33:47;;;;;;;10.65;3.53;;;25.00;18.40;;;;;;6273309;28;20040;-70
2022/03/11 13:36:48;;;;;;;6.05;2.40;;;24.80;18.80;;;;;;6273284;28;20374;-70
2022/03/11 13:40:22;;;;;;;4.90;2.70;;;24.70;19.00;;;;;;6273575;28;20214;-70
2022/03/11 13:43:23;;;;;;;4.13;2.20;;;24.60;19.00;;;;;;6205841;28;20430;-69
2022/03/11 13:46:29;;;;;;;5.85;2.25;;;24.50;18.80;;;;;;6204436;28;20034;-69
2022/03/11 13:49:42;;;;;;;3.30;2.00;;;24.40;18.90;;;;;;6222719;28;20429;-69
2022/03/11 13:52:44;;;;;;;4.00;1.98;;;24.30;18.80;;;;;;6218630;28;20406;-70
2022/03/11 13:55:45;;;;;;;6.85;2.58;;;24.30;19.00;;;;;;6215490;28;20116;-70
2022/03/11 13:58:46;;;;;;;5.68;1.80;;;24.20;19.10;;;;;;6205251;28;20041;-70
2022/03/11 14:01:46;;;;;;;5.90;1.85;;;24.20;19.30;;;;;;6222683;28;20069;-71
2022/03/11 14:05:27;;;;;;;5.40;2.28;;;24.20;19.20;;;;;;6178560;28;20054;-70
2022/03/11 14:08:28;;;;;;;4.10;1.80;;;24.10;19.00;;;;;;6074990;29;20048;-69
2022/03/11 14:11:29;;;;;;;4.70;2.30;;;24.00;19.10;;;;;;6059569;29;20084;-70
2022/03/11 14:14:32;;;;;;;4.13;2.20;;;23.90;19.30;;;;;;6085004;29;20096;-69
2022/03/11 14:17:34;;;;;;;4.30;2.00;;;23.70;19.40;;;;;;6093154;28;20557;-70
2022/03/11 14:20:35;;;;;;;4.55;2.00;;;23.50;19.40;;;;;;6146803;28;20035;-69
2022/03/11 14:23:36;;;;;;;4.63;2.00;;;23.30;19.70;;;;;;6114866;28;20118;-70
2022/03/11 14:26:36;;;;;;;5.38;2.22;;;23.20;19.90;;;;;;6125320;28;20042;-70
2022/03/11 14:29:37;;;;;;;12.95;2.30;;;23.00;20.00;;;;;;6129899;28;20357;-69
2022/03/11 14:32:38;;;;;;;8.07;2.22;;;22.90;20.60;;;;;;6149381;28;20039;-69
2022/03/11 14:35:39;;;;;;;6.85;2.20;;;22.80;20.20;;;;;;6145707;28;20107;-69
2022/03/11 14:38:46;;;;;;;8.90;2.15;;;22.70;20.50;;;;;;6178618;28;20034;-71
2022/03/11 14:41:47;;;;;;;4.93;2.28;;;22.70;20.50;;;;;;6244029;28;20037;-69
2022/03/11 14:44:48;;;;;;;4.72;1.92;;;22.70;20.50;;;;;;6230995;28;20044;-69
2022/03/11 14:47:49;;;;;;;7.32;2.15;;;22.60;20.50;;;;;;6243435;28;20045;-69
2022/03/11 14:50:50;;;;;;;3.47;1.95;;;22.50;20.70;;;;;;6267035;28;20066;-68
2022/03/11 14:53:51;;;;;;;8.32;2.15;;;22.40;20.70;;;;;;6270099;28;20033;-70
2022/03/11 14:56:52;;;;;;;5.13;1.77;;;22.30;20.80;;;;;;6268105;28;20044;-69
2022/03/11 14:59:53;;;;;;;6.30;2.00;;;22.20;20.70;;;;;;6267863;28;20366;-69
2022/03/11 15:02:54;;;;;;;2.95;1.73;;;22.10;20.80;;;;;;6253897;28;20050;-71
2022/03/11 15:05:55;;;;;;;9.40;2.30;;;22.10;20.90;;;;;;6243252;28;20455;-70
2022/03/11 15:08:56;;;;;;;5.57;2.15;;;22.00;20.90;;;;;;6244463;28;20072;-69
2022/03/11 15:11:57;;;;;;;3.25;1.88;;;22.00;20.90;;;;;;6218464;28;20448;-69
2022/03/11 15:14:58;;;;;;;4.65;2.00;;;22.00;20.90;;;;;;6232189;28;20044;-69
2022/03/11 15:18:04;;;;;;;4.65;2.13;;;22.00;21.00;;;;;;6244460;28;20091;-69
2022/03/11 15:21:05;;;;;;;2.80;1.90;;;22.00;21.00;;;;;;6244611;28;20044;-69
2022/03/11 15:24:07;;;;;;;3.42;2.03;;;21.90;20.90;;;;;;6267736;28;20044;-69
2022/03/11 15:27:08;;;;;;;4.28;2.33;;;21.80;21.00;;;;;;6268064;28;20072;-69
2022/03/11 15:30:10;;;;;;;9.63;2.72;;;21.80;20.90;;;;;;6268838;28;20037;-69
2022/03/11 15:33:11;;;;;;;3.85;2.10;;;21.70;20.90;;;;;;6269610;28;20138;-69
2022/03/11 15:36:11;;;;;;;6.03;2.35;;;21.60;21.00;;;;;;6267233;28;20041;-69
2022/03/11 15:39:15;;;;;;;14.27;3.00;;;21.50;21.10;;;;;;6267489;28;20048;-70